createdAt,value
2022-11-02T00:01:30.927Z,64.65
2022-11-02T00:04:03.549Z,64.38
2022-11-02T00:06:36.192Z,64.29
2022-11-02T00:09:09.181Z,64.32
2022-11-02T00:11:41.958Z,64.50
2022-11-02T00:14:14.644Z,64.64
2022-11-02T00:16:47.899Z,64.38
2022-11-02T00:19:21.416Z,64.29
2022-11-02T00:21:54.924Z,64.43
2022-11-02T00:24:27.530Z,64.23
2022-11-02T00:26:59.919Z,64.27
2022-11-02T00:29:34.073Z,64.38
2022-11-02T00:32:07.212Z,64.51
2022-11-02T00:34:40.543Z,65.05
2022-11-02T00:37:13.038Z,65.33
2022-11-02T00:39:45.836Z,65.40
2022-11-02T00:42:18.218Z,65.52
2022-11-02T00:44:51.227Z,66.38
2022-11-02T00:47:24.049Z,67.18
2022-11-02T00:49:57.474Z,67.79
2022-11-02T00:52:30.615Z,68.21
2022-11-02T00:55:03.235Z,68.71
2022-11-02T00:57:36.279Z,69.08
2022-11-02T01:00:14.280Z,69.53
2022-11-02T01:02:47.515Z,69.70
2022-11-02T01:05:21.215Z,69.76
2022-11-02T01:07:54.679Z,70.14
2022-11-02T01:10:28.381Z,70.22
2022-11-02T01:13:02.349Z,70.16
2022-11-02T01:15:37.216Z,70.40
2022-11-02T01:18:10.595Z,70.61
2022-11-02T01:20:43.613Z,70.84
2022-11-02T01:23:17.202Z,70.90
2022-11-02T01:25:49.999Z,70.98
2022-11-02T01:28:25.097Z,71.12
2022-11-02T01:30:59.184Z,71.52
2022-11-02T01:33:33.393Z,71.87
2022-11-02T01:36:07.699Z,72.30
2022-11-02T01:38:39.760Z,72.59
2022-11-02T01:41:13.748Z,72.69
2022-11-02T01:43:47.882Z,72.87
2022-11-02T01:46:27.978Z,73.13
2022-11-02T01:49:10.631Z,73.43
2022-11-02T01:52:02.914Z,73.77
2022-11-02T01:54:40.585Z,74.13
2022-11-02T01:57:16.396Z,74.26
2022-11-02T02:00:05.851Z,74.37
2022-11-02T02:02:51.520Z,74.61
2022-11-02T02:05:24.783Z,75.03
2022-11-02T02:07:57.555Z,75.09
2022-11-02T02:10:30.094Z,75.00
2022-11-02T02:13:06.223Z,75.20
2022-11-02T02:16:06.632Z,75.37
2022-11-02T02:18:49.822Z,75.38
2022-11-02T02:21:40.017Z,75.68
2022-11-02T02:24:45.849Z,76.00
2022-11-02T02:27:55.294Z,76.49
2022-11-02T02:30:29.101Z,76.82
2022-11-02T02:33:14.182Z,77.03
2022-11-02T02:36:00.894Z,77.07
2022-11-02T02:38:56.298Z,77.30
2022-11-02T02:41:45.046Z,77.51
2022-11-02T02:44:22.141Z,77.57
2022-11-02T02:46:59.312Z,77.50
2022-11-02T02:49:38.623Z,77.39
2022-11-02T02:52:11.976Z,77.36
2022-11-02T02:54:46.800Z,77.31
2022-11-02T02:57:21.543Z,77.42
2022-11-02T02:59:55.105Z,77.45
2022-11-02T03:02:35.530Z,77.54
2022-11-02T03:05:34.157Z,77.78
2022-11-02T03:08:13.326Z,77.57
2022-11-02T03:11:16.908Z,77.24
2022-11-02T03:14:37.225Z,76.98
2022-11-02T03:17:23.597Z,76.71
2022-11-02T03:20:13.706Z,76.37
2022-11-02T03:23:10.565Z,76.21
2022-11-02T03:25:56.866Z,75.91
2022-11-02T03:28:50.601Z,75.67
2022-11-02T03:31:39.463Z,75.46
2022-11-02T03:34:35.564Z,75.73
2022-11-02T03:37:19.705Z,75.79
2022-11-02T03:39:56.687Z,75.68
2022-11-02T03:42:30.031Z,75.62
2022-11-02T03:45:10.443Z,75.63
2022-11-02T03:47:44.568Z,75.82
2022-11-02T03:50:20.615Z,75.75
2022-11-02T03:53:01.282Z,75.82
2022-11-02T03:55:37.885Z,76.14
2022-11-02T03:58:12.987Z,76.18
2022-11-02T04:00:54.911Z,76.29
2022-11-02T04:03:28.111Z,76.47
2022-11-02T04:06:00.598Z,76.56
2022-11-02T04:08:37.925Z,76.84
2022-11-02T04:11:30.705Z,77.07
2022-11-02T04:14:23.126Z,77.23
2022-11-02T04:16:57.373Z,77.13
2022-11-02T04:19:31.368Z,77.13
2022-11-02T04:22:23.627Z,77.04
2022-11-02T04:25:15.848Z,76.89
2022-11-02T04:27:52.805Z,76.63
2022-11-02T04:30:27.385Z,76.75
2022-11-02T04:33:18.101Z,76.53
2022-11-02T07:58:51.988Z,34.79
2022-11-02T08:01:24.711Z,34.45
2022-11-02T08:03:57.146Z,34.06
2022-11-02T08:06:29.978Z,34.40
2022-11-02T08:09:03.340Z,34.68
2022-11-02T08:11:35.816Z,33.68
2022-11-02T08:14:09.190Z,33.81
2022-11-02T08:16:41.767Z,34.45
2022-11-02T08:19:15.265Z,34.47
2022-11-02T08:21:48.314Z,34.17
2022-11-02T08:24:20.835Z,34.33
2022-11-02T08:26:54.901Z,34.01
2022-11-02T08:29:27.736Z,33.31
2022-11-02T08:32:01.187Z,33.49
2022-11-02T08:34:33.807Z,33.31
2022-11-02T08:37:09.002Z,32.79
2022-11-02T08:39:42.015Z,33.06
2022-11-02T08:42:14.593Z,32.95
2022-11-02T08:44:48.076Z,32.67
2022-11-02T08:47:20.690Z,32.20
2022-11-02T08:49:53.321Z,32.12
2022-11-02T08:52:25.644Z,32.43
2022-11-02T08:54:58.904Z,32.06
2022-11-02T08:57:31.634Z,31.97
2022-11-02T09:00:04.920Z,31.73
2022-11-02T09:02:37.904Z,31.72
2022-11-02T09:05:32.590Z,31.67
2022-11-02T09:08:08.717Z,31.24
2022-11-02T09:10:41.899Z,30.97
2022-11-02T09:13:16.130Z,31.50
2022-11-02T09:15:54.549Z,30.73
2022-11-02T09:18:27.466Z,30.59
2022-11-02T09:21:08.299Z,30.32
2022-11-02T09:23:41.293Z,30.01
2022-11-02T09:26:13.799Z,29.29
2022-11-02T09:28:46.747Z,29.08
2022-11-02T09:31:19.147Z,28.95
2022-11-02T09:33:52.219Z,28.84
2022-11-02T09:36:24.938Z,29.00
2022-11-02T09:38:57.680Z,28.90
2022-11-02T09:41:46.675Z,28.74
2022-11-02T09:45:01.745Z,28.41
2022-11-02T09:48:15.318Z,28.54
2022-11-02T09:50:13.076Z,28.49
2022-11-02T09:52:45.804Z,28.71
2022-11-02T09:55:22.778Z,28.74
2022-11-02T09:58:08.926Z,28.88
2022-11-02T10:00:42.963Z,28.82
2022-11-02T10:03:43.690Z,29.01
2022-11-02T10:06:20.573Z,28.71
2022-11-02T10:09:15.576Z,28.58
2022-11-02T10:15:00.485Z,28.55
2022-11-02T10:17:37.378Z,28.52
2022-11-02T10:20:35.853Z,28.31
2022-11-02T10:23:10.325Z,28.49
2022-11-02T10:25:43.041Z,28.84
2022-11-02T10:28:22.308Z,28.78
2022-11-02T10:30:55.750Z,28.89
2022-11-02T10:33:31.313Z,29.09
2022-11-02T10:36:18.239Z,29.47
2022-11-02T10:39:23.123Z,29.66
2022-11-02T10:42:44.221Z,30.17
2022-11-02T10:45:56.247Z,30.63
2022-11-02T10:48:39.274Z,31.38
2022-11-02T10:51:15.874Z,31.78
2022-11-02T10:53:50.879Z,32.24
2022-11-02T10:56:34.815Z,32.22
2022-11-02T10:59:22.937Z,31.84
2022-11-02T11:02:20.367Z,31.61
2022-11-02T11:04:52.757Z,31.44
2022-11-02T11:07:28.086Z,31.35
2022-11-02T11:10:01.159Z,31.10
2022-11-02T11:12:42.104Z,30.97
2022-11-02T11:15:48.862Z,31.35
2022-11-02T11:21:02.815Z,31.34
2022-11-02T11:23:36.295Z,31.55
2022-11-02T11:26:12.559Z,31.77
2022-11-02T11:28:58.055Z,32.22
2022-11-02T11:31:31.394Z,32.02
2022-11-02T11:34:03.936Z,32.32
2022-11-02T11:36:38.672Z,32.20
2022-11-02T11:39:27.806Z,32.79
2022-11-02T11:42:02.808Z,33.49
2022-11-02T11:44:36.062Z,34.33
2022-11-02T11:47:10.008Z,35.01
2022-11-02T11:50:22.465Z,35.82
2022-11-02T11:52:33.897Z,36.52
2022-11-02T11:55:25.525Z,36.85
2022-11-02T11:58:19.854Z,36.90
2022-11-02T12:01:17.933Z,37.38
2022-11-02T12:04:00.214Z,37.90
2022-11-02T12:07:10.409Z,38.58
2022-11-02T12:10:25.217Z,38.77
2022-11-02T12:13:30.459Z,39.77
2022-11-02T12:16:25.571Z,40.36
2022-11-02T12:19:09.000Z,41.24
2022-11-02T12:22:18.640Z,41.55
2022-11-02T12:25:30.535Z,42.31
2022-11-02T12:28:34.099Z,42.38
2022-11-02T12:35:28.412Z,43.36
2022-11-02T12:38:27.216Z,44.28
2022-11-02T12:41:06.004Z,44.51
2022-11-02T12:43:51.960Z,44.79
2022-11-02T12:46:49.377Z,44.88
2022-11-02T12:49:48.148Z,45.11
2022-11-02T12:53:00.221Z,45.69
2022-11-02T12:55:41.017Z,46.17
2022-11-02T12:58:18.960Z,45.95
2022-11-02T13:00:57.746Z,46.10
2022-11-02T13:03:59.099Z,46.68
2022-11-02T13:06:47.649Z,46.97
2022-11-02T13:09:36.344Z,47.22
2022-11-02T13:12:14.806Z,47.61
2022-11-02T13:14:50.091Z,47.98
2022-11-02T16:52:33.714Z,63.76
2022-11-02T16:58:28.587Z,63.30
2022-11-02T17:01:06.756Z,63.19
2022-11-02T17:03:39.923Z,63.21
2022-11-02T17:06:12.664Z,63.07
2022-11-02T17:08:46.220Z,63.09
2022-11-02T17:11:19.153Z,63.11
2022-11-02T17:13:55.582Z,63.08
2022-11-02T17:16:29.167Z,63.28
2022-11-02T17:19:06.432Z,63.04
2022-11-02T17:21:39.353Z,63.22
2022-11-02T17:24:33.314Z,63.13
2022-11-02T17:27:27.085Z,63.24
2022-11-02T17:30:00.135Z,63.15
2022-11-02T17:32:32.862Z,63.36
2022-11-02T17:35:07.458Z,63.35
2022-11-02T17:37:39.960Z,63.01
2022-11-02T17:40:13.807Z,63.04
2022-11-02T17:42:59.318Z,62.95
2022-11-02T17:45:37.647Z,62.87
2022-11-02T17:48:11.336Z,62.86
2022-11-02T17:50:43.752Z,62.83
2022-11-02T17:53:16.499Z,62.68
2022-11-02T17:55:49.268Z,62.58
2022-11-02T17:58:21.907Z,62.39
2022-11-02T18:00:55.732Z,62.48
2022-11-02T18:03:31.408Z,62.66
2022-11-02T18:06:03.082Z,62.61
2022-11-02T18:08:37.476Z,62.73
2022-11-02T18:11:11.214Z,62.76
2022-11-02T18:13:44.270Z,62.70
2022-11-02T18:16:16.963Z,62.68
2022-11-02T18:18:49.618Z,62.67
2022-11-02T18:21:23.575Z,62.89
2022-11-02T18:23:56.050Z,62.83
2022-11-02T18:26:28.776Z,62.81
2022-11-02T18:29:02.012Z,62.98
2022-11-02T18:31:37.454Z,63.34
2022-11-02T18:34:12.626Z,63.39
2022-11-02T18:36:45.904Z,63.35
2022-11-02T18:39:18.504Z,63.52
2022-11-02T18:41:51.842Z,63.54
2022-11-02T18:44:24.727Z,63.60
2022-11-02T18:46:59.453Z,63.76
2022-11-02T18:49:31.804Z,63.92
2022-11-02T18:52:04.241Z,64.07
2022-11-02T18:54:37.998Z,64.14
2022-11-02T18:57:10.592Z,64.40
2022-11-02T18:59:43.198Z,64.80
2022-11-02T19:02:15.790Z,65.25
2022-11-02T19:04:48.527Z,65.82
2022-11-02T19:07:39.329Z,65.70
2022-11-02T19:10:12.442Z,65.68
2022-11-02T19:12:46.551Z,66.56
2022-11-02T19:15:18.977Z,66.84
2022-11-02T19:17:51.923Z,66.91
2022-11-02T19:20:51.905Z,66.43
2022-11-02T19:23:24.385Z,66.86
2022-11-02T19:25:57.163Z,66.97
2022-11-02T19:28:30.904Z,67.61
2022-11-02T19:31:08.401Z,67.86
2022-11-02T19:33:40.869Z,67.68
2022-11-02T19:36:14.130Z,67.80
2022-11-02T19:38:46.559Z,67.92
2022-11-02T19:41:19.604Z,68.18
2022-11-02T19:43:52.102Z,68.44
2022-11-02T19:46:25.428Z,68.34
2022-11-02T19:49:01.087Z,68.11
2022-11-02T19:51:34.375Z,68.68
2022-11-02T19:54:07.405Z,68.93
2022-11-02T19:56:39.905Z,69.46
2022-11-02T19:59:12.817Z,70.02
2022-11-02T20:01:46.746Z,70.45
2022-11-02T20:04:19.492Z,70.45
2022-11-02T20:06:52.103Z,71.30
2022-11-02T20:09:24.909Z,71.52
2022-11-02T20:11:57.383Z,72.66
2022-11-02T20:14:30.447Z,72.95
2022-11-02T20:17:29.565Z,73.45
2022-11-02T20:19:38.295Z,73.67
2022-11-02T20:22:10.977Z,73.64
2022-11-02T20:24:43.420Z,74.11
2022-11-02T20:27:16.026Z,74.34
2022-11-02T20:29:48.609Z,74.36
2022-11-02T20:32:22.453Z,74.75
2022-11-02T20:34:54.871Z,74.92
2022-11-02T20:37:27.670Z,75.03
2022-11-02T20:40:00.782Z,75.40
2022-11-02T20:42:33.853Z,75.48
2022-11-02T20:45:08.782Z,75.66
2022-11-02T20:47:41.832Z,75.86
2022-11-02T20:50:16.883Z,76.19
2022-11-02T20:52:49.672Z,76.34
2022-11-02T20:55:22.896Z,76.59
2022-11-02T20:57:55.486Z,77.05
2022-11-02T21:00:27.969Z,77.25
2022-11-02T21:03:00.571Z,77.35
2022-11-02T21:05:34.113Z,77.12
2022-11-02T21:08:07.614Z,77.54
2022-11-02T21:10:40.608Z,77.76
2022-11-02T21:13:31.389Z,78.04
2022-11-02T21:16:05.231Z,78.38
2022-11-02T21:18:37.717Z,78.57
2022-11-02T21:21:15.775Z,78.77
2022-11-02T21:23:48.310Z,79.15
2022-11-02T21:26:20.888Z,79.45
2022-11-02T21:28:53.463Z,79.58
2022-11-02T21:31:26.352Z,79.83
2022-11-02T21:33:58.983Z,80.10
2022-11-02T21:36:31.990Z,80.19
2022-11-02T21:39:04.773Z,80.30
2022-11-02T21:41:39.058Z,80.67
2022-11-02T21:44:12.246Z,80.60
2022-11-02T21:46:45.882Z,80.72
2022-11-02T21:49:18.826Z,80.80
2022-11-02T21:51:51.364Z,80.70
2022-11-02T21:54:24.162Z,80.55
2022-11-02T21:56:58.116Z,80.27
2022-11-02T21:59:30.838Z,80.21
2022-11-02T22:02:03.431Z,80.36
2022-11-02T22:04:35.995Z,80.39
2022-11-02T22:07:08.404Z,80.51
2022-11-02T22:09:41.112Z,80.67
2022-11-02T22:12:31.752Z,80.82
2022-11-02T22:15:05.797Z,81.12
2022-11-02T22:17:54.181Z,81.10
2022-11-02T22:20:13.845Z,81.21
2022-11-02T22:22:47.347Z,81.19
2022-11-02T22:25:20.015Z,81.75
2022-11-02T22:27:53.850Z,82.06
2022-11-02T22:30:26.341Z,82.36
2022-11-02T22:32:59.233Z,82.74
2022-11-02T22:35:31.859Z,83.34
2022-11-02T22:38:22.574Z,83.42
2022-11-02T22:41:01.314Z,83.90
2022-11-02T22:43:34.067Z,84.23
2022-11-02T22:46:08.127Z,84.28
2022-11-02T22:48:40.484Z,84.22
2022-11-02T22:51:14.305Z,84.58
2022-11-02T22:53:47.067Z,84.63
2022-11-02T22:56:21.420Z,84.69
2022-11-02T22:58:54.006Z,84.86
2022-11-02T23:01:28.433Z,84.89
2022-11-02T23:04:01.443Z,85.17
2022-11-02T23:06:34.816Z,85.30
2022-11-02T23:09:07.329Z,85.50
2022-11-02T23:11:40.702Z,85.68
2022-11-02T23:14:17.843Z,85.84
2022-11-02T23:16:51.941Z,85.91
2022-11-02T23:19:28.616Z,86.16
2022-11-02T23:22:31.506Z,86.12
2022-11-02T23:25:18.478Z,86.12
2022-11-02T23:28:16.297Z,86.31
2022-11-02T23:31:08.165Z,86.70
2022-11-02T23:33:41.736Z,86.98
2022-11-02T23:36:16.034Z,87.23
2022-11-02T23:39:07.724Z,87.41
2022-11-02T23:41:42.235Z,87.88
2022-11-02T23:44:14.878Z,87.87
2022-11-02T23:46:49.328Z,88.08
2022-11-02T23:49:21.625Z,88.26
2022-11-02T23:52:12.224Z,88.89
2022-11-02T23:55:02.564Z,88.90
2022-11-02T23:57:35.243Z,89.29
